Time;durP1;ratioP1;P1;durP2;ratioP2;P2;SDS_P1;SDS_P2;PMS_P1;PMS_P2;Temp;Humidity;BMP_temperature;BMP_pressure;BME280_temperature;BME280_humidity;BME280_pressure;Samples;Min_cycle;Max_cycle;Signal;HPM_P1;HPM_P2
2022/01/09 00:00:30;;;;;;;2.20;2.10;;;;;;;;;;5067444;28;20222;-75
2022/01/09 00:02:57;;;;;;;1.80;1.70;;;;;;;;;;5056989;28;20229;-75
2022/01/09 00:05:24;;;;;;;2.10;2.00;;;;;;;;;;5057552;28;20268;-75
2022/01/09 00:07:53;;;;;;;3.07;2.30;;;;;;;;;;5057617;28;20233;-75
2022/01/09 00:10:20;;;;;;;2.07;1.87;;;;;;;;;;5058028;28;20666;-77
2022/01/09 00:12:47;;;;;;;1.77;1.73;;;;;;;;;;5057496;28;20236;-75
2022/01/09 00:15:16;;;;;;;2.17;2.07;;;;;;;;;;5058098;28;20249;-75
2022/01/09 00:17:43;;;;;;;1.70;1.70;;;;;;;;;;5057450;28;20237;-76
2022/01/09 00:20:11;;;;;;;2.10;2.00;;;;;;;;;;5058331;28;20210;-75
2022/01/09 00:22:43;;;;;;;2.67;2.40;;;;;;;;;;5057538;28;20637;-77
2022/01/09 00:25:10;;;;;;;1.97;1.90;;;;;;;;;;5057985;28;20236;-75
2022/01/09 00:27:37;;;;;;;2.47;2.37;;;;;;;;;;5055972;28;20209;-75
2022/01/09 00:30:05;;;;;;;2.23;2.00;;;;;;;;;;5057587;28;20205;-75
2022/01/09 00:32:33;;;;;;;1.80;1.70;;;;;;;;;;5057742;28;20226;-76
2022/01/09 00:35:00;;;;;;;4.33;2.30;;;;;;;;;;5057405;28;20231;-76
2022/01/09 00:37:27;;;;;;;3.30;2.23;;;;;;;;;;5057084;28;20206;-75
2022/01/09 00:39:54;;;;;;;2.37;2.23;;;;;;;;;;5057325;28;20216;-75
2022/01/09 00:42:22;;;;;;;2.43;2.30;;;;;;;;;;5056559;28;20204;-76
2022/01/09 00:44:49;;;;;;;2.23;2.13;;;;;;;;;;5056691;28;20706;-75
2022/01/09 00:47:16;;;;;;;2.00;1.90;;;;;;;;;;5057633;28;20207;-75
2022/01/09 00:49:44;;;;;;;2.27;2.17;;;;;;;;;;5056440;28;20241;-75
2022/01/09 00:52:11;;;;;;;1.80;1.70;;;;;;;;;;5056256;28;20210;-76
2022/01/09 00:54:38;;;;;;;2.10;2.00;;;;;;;;;;5055601;28;20238;-75
2022/01/09 00:57:06;;;;;;;1.93;1.83;;;;;;;;;;5056731;28;20214;-76
2022/01/09 00:59:33;;;;;;;2.00;1.90;;;;;;;;;;5059991;28;20241;-75
2022/01/09 01:02:00;;;;;;;1.70;1.70;;;;;;;;;;5076727;28;20210;-75
2022/01/09 01:04:27;;;;;;;2.50;2.30;;;;;;;;;;5075696;28;20241;-75
2022/01/09 01:06:55;;;;;;;2.07;1.97;;;;;;;;;;5056906;28;20208;-75
2022/01/09 01:09:24;;;;;;;2.03;1.83;;;;;;;;;;5055046;28;20242;-75
2022/01/09 01:11:51;;;;;;;1.70;1.70;;;;;;;;;;5055632;28;20218;-75
2022/01/09 01:14:22;;;;;;;2.00;1.90;;;;;;;;;;5054657;28;20237;-75
2022/01/09 01:16:49;;;;;;;2.03;1.93;;;;;;;;;;5055525;28;20207;-75
2022/01/09 01:19:16;;;;;;;1.60;1.60;;;;;;;;;;5054608;28;20252;-77
2022/01/09 01:21:43;;;;;;;1.80;1.70;;;;;;;;;;5055315;28;20204;-75
2022/01/09 01:24:12;;;;;;;2.00;1.90;;;;;;;;;;5054551;28;20238;-76
2022/01/09 01:26:39;;;;;;;2.03;1.93;;;;;;;;;;5054690;28;20217;-75
2022/01/09 01:29:06;;;;;;;1.60;1.60;;;;;;;;;;5053970;28;20239;-75
2022/01/09 01:31:33;;;;;;;1.70;1.70;;;;;;;;;;5054138;28;20210;-75
2022/01/09 01:34:00;;;;;;;1.70;1.70;;;;;;;;;;5053491;28;20234;-75
2022/01/09 01:36:27;;;;;;;2.10;2.00;;;;;;;;;;5054098;28;20623;-75
2022/01/09 01:38:54;;;;;;;2.27;2.03;;;;;;;;;;5053546;28;20234;-75
2022/01/09 01:41:22;;;;;;;1.97;1.90;;;;;;;;;;5054228;28;20213;-75
2022/01/09 01:43:49;;;;;;;1.73;1.73;;;;;;;;;;5053004;28;20325;-75
2022/01/09 01:46:16;;;;;;;1.73;1.70;;;;;;;;;;5053984;28;20244;-75
2022/01/09 01:48:43;;;;;;;1.80;1.80;;;;;;;;;;5053301;28;20244;-75
2022/01/09 01:51:10;;;;;;;2.10;2.00;;;;;;;;;;5053788;28;20634;-75
2022/01/09 01:53:39;;;;;;;2.17;2.07;;;;;;;;;;5033514;28;20260;-75
2022/01/09 01:56:07;;;;;;;1.63;1.63;;;;;;;;;;5034435;28;20659;-75
2022/01/09 01:58:35;;;;;;;1.90;1.80;;;;;;;;;;5033671;28;20258;-75
2022/01/09 02:01:02;;;;;;;1.93;1.83;;;;;;;;;;5069758;28;20201;-75
2022/01/09 02:03:29;;;;;;;2.07;1.97;;;;;;;;;;5073143;28;20765;-76
2022/01/09 02:05:56;;;;;;;1.80;1.80;;;;;;;;;;5055300;28;20221;-75
2022/01/09 02:08:23;;;;;;;1.67;1.67;;;;;;;;;;5069381;28;20226;-77
2022/01/09 02:10:50;;;;;;;1.80;1.70;;;;;;;;;;5055959;28;20205;-75
2022/01/09 02:13:19;;;;;;;2.07;2.00;;;;;;;;;;5056695;28;20244;-76
2022/01/09 02:15:48;;;;;;;2.00;1.90;;;;;;;;;;5053827;28;20214;-75
2022/01/09 02:18:16;;;;;;;2.00;1.90;;;;;;;;;;5053295;28;20230;-75
2022/01/09 02:20:45;;;;;;;2.00;1.90;;;;;;;;;;5053586;28;20578;-75
2022/01/09 02:23:12;;;;;;;2.07;1.97;;;;;;;;;;5057079;28;20270;-75
2022/01/09 02:25:40;;;;;;;2.07;1.97;;;;;;;;;;5056128;28;20226;-75
2022/01/09 02:28:08;;;;;;;2.00;1.90;;;;;;;;;;5052988;28;20234;-75
2022/01/09 02:30:36;;;;;;;2.50;2.30;;;;;;;;;;5053536;28;20210;-75
2022/01/09 02:33:03;;;;;;;2.50;2.30;;;;;;;;;;5052728;28;20242;-75
2022/01/09 02:35:31;;;;;;;2.50;2.40;;;;;;;;;;5053286;28;20745;-75
2022/01/09 02:37:59;;;;;;;2.83;2.63;;;;;;;;;;5052818;28;20772;-75
2022/01/09 02:40:26;;;;;;;2.20;2.10;;;;;;;;;;5053663;28;20265;-76
2022/01/09 02:42:54;;;;;;;1.93;1.90;;;;;;;;;;5053025;28;20683;-75
2022/01/09 02:45:24;;;;;;;1.73;1.73;;;;;;;;;;5053262;28;20264;-75
2022/01/09 02:47:52;;;;;;;1.70;1.70;;;;;;;;;;5052814;28;20260;-76
2022/01/09 02:50:30;;;;;;;1.70;1.70;;;;;;;;;;5053248;28;20210;-77
2022/01/09 02:53:00;;;;;;;1.90;1.90;;;;;;;;;;5052254;28;20760;-75
2022/01/09 02:55:29;;;;;;;1.77;1.67;;;;;;;;;;5052703;28;20817;-76
2022/01/09 02:57:57;;;;;;;1.50;1.50;;;;;;;;;;5052754;28;20237;-75
2022/01/09 03:00:24;;;;;;;1.67;1.67;;;;;;;;;;5066273;28;20689;-75
2022/01/09 03:02:52;;;;;;;2.00;1.90;;;;;;;;;;5063197;28;20706;-75
2022/01/09 03:05:19;;;;;;;1.80;1.80;;;;;;;;;;5053307;28;20230;-75
2022/01/09 03:07:46;;;;;;;1.93;1.93;;;;;;;;;;5053531;28;20233;-75
2022/01/09 03:10:14;;;;;;;1.80;1.70;;;;;;;;;;5053764;28;20198;-75
2022/01/09 03:12:43;;;;;;;1.80;1.80;;;;;;;;;;5053245;28;20264;-75
2022/01/09 03:15:11;;;;;;;1.90;1.80;;;;;;;;;;5053198;28;20242;-75
2022/01/09 03:17:38;;;;;;;1.53;1.53;;;;;;;;;;5052829;28;20208;-75
2022/01/09 03:20:06;;;;;;;2.10;2.00;;;;;;;;;;5053196;28;20683;-75
2022/01/09 03:22:33;;;;;;;2.00;1.90;;;;;;;;;;5052332;28;20215;-75
2022/01/09 03:25:00;;;;;;;1.70;1.70;;;;;;;;;;5053726;28;20234;-75
2022/01/09 03:27:27;;;;;;;2.00;1.90;;;;;;;;;;5054498;28;20224;-75
2022/01/09 03:29:56;;;;;;;2.10;2.00;;;;;;;;;;5053474;28;20208;-76
2022/01/09 03:32:23;;;;;;;2.60;2.40;;;;;;;;;;5053134;28;20223;-75
2022/01/09 03:34:50;;;;;;;2.23;2.13;;;;;;;;;;5053488;28;20696;-76
2022/01/09 03:37:17;;;;;;;2.07;1.97;;;;;;;;;;5047878;28;20202;-75
2022/01/09 03:39:44;;;;;;;2.00;1.90;;;;;;;;;;5038535;28;20238;-77
2022/01/09 03:42:11;;;;;;;2.00;1.90;;;;;;;;;;5051058;28;20204;-75
2022/01/09 03:44:38;;;;;;;1.80;1.77;;;;;;;;;;5051972;28;20239;-76
2022/01/09 03:47:14;;;;;;;2.00;1.67;;;;;;;;;;5041124;28;20210;-75
2022/01/09 03:49:42;;;;;;;2.00;1.90;;;;;;;;;;5034536;28;20231;-75
2022/01/09 03:52:09;;;;;;;2.00;1.83;;;;;;;;;;5046914;28;20278;-75
2022/01/09 03:54:38;;;;;;;1.60;1.60;;;;;;;;;;5051317;28;20239;-75
2022/01/09 03:57:05;;;;;;;1.57;1.57;;;;;;;;;;5053025;28;20286;-75
2022/01/09 03:59:32;;;;;;;1.90;1.83;;;;;;;;;;5057454;28;20254;-77
2022/01/09 04:02:00;;;;;;;1.90;1.80;;;;;;;;;;5064383;28;20240;-75
2022/01/09 04:04:29;;;;;;;1.80;1.80;;;;;;;;;;5051766;28;20727;-75
2022/01/09 04:06:56;;;;;;;1.97;1.93;;;;;;;;;;5052729;28;20205;-75
2022/01/09 04:09:36;;;;;;;1.80;1.80;;;;;;;;;;5052270;28;20631;-75
2022/01/09 04:12:04;;;;;;;1.80;1.70;;;;;;;;;;5052656;28;20213;-75
2022/01/09 04:14:31;;;;;;;1.80;1.70;;;;;;;;;;5050775;28;20245;-75
2022/01/09 04:17:00;;;;;;;1.70;1.60;;;;;;;;;;5052846;28;20212;-75
2022/01/09 04:19:28;;;;;;;1.50;1.50;;;;;;;;;;5052279;28;20765;-75
2022/01/09 04:21:55;;;;;;;1.50;1.50;;;;;;;;;;5052429;28;20221;-77
2022/01/09 04:24:22;;;;;;;1.53;1.53;;;;;;;;;;5050558;28;20235;-77
2022/01/09 04:26:49;;;;;;;1.40;1.40;;;;;;;;;;5051285;28;20215;-76
2022/01/09 04:29:16;;;;;;;1.33;1.33;;;;;;;;;;5055103;28;20240;-76
2022/01/09 04:31:43;;;;;;;1.53;1.53;;;;;;;;;;5055829;28;20205;-76
2022/01/09 04:34:10;;;;;;;1.40;1.40;;;;;;;;;;5053710;28;20239;-77
2022/01/09 04:36:39;;;;;;;1.40;1.40;;;;;;;;;;5053757;28;20736;-77
2022/01/09 04:39:06;;;;;;;1.40;1.40;;;;;;;;;;5053250;28;20717;-77
2022/01/09 04:41:33;;;;;;;1.40;1.40;;;;;;;;;;5053248;28;20206;-77
2022/01/09 04:44:00;;;;;;;1.47;1.47;;;;;;;;;;5053064;28;20237;-77
2022/01/09 04:46:37;;;;;;;1.40;1.40;;;;;;;;;;5055015;28;20213;-78
2022/01/09 04:49:04;;;;;;;1.30;1.30;;;;;;;;;;5055371;28;20244;-78
2022/01/09 04:51:31;;;;;;;1.40;1.40;;;;;;;;;;5057060;28;20216;-76
2022/01/09 04:53:59;;;;;;;1.40;1.40;;;;;;;;;;5056331;28;20241;-76
2022/01/09 04:56:28;;;;;;;1.40;1.40;;;;;;;;;;5059782;28;20712;-77
2022/01/09 04:58:55;;;;;;;1.40;1.40;;;;;;;;;;5061032;28;20236;-76
2022/01/09 05:01:22;;;;;;;1.40;1.40;;;;;;;;;;5076509;28;20208;-76
2022/01/09 05:03:49;;;;;;;1.40;1.40;;;;;;;;;;5075717;28;20237;-76
2022/01/09 05:06:16;;;;;;;1.40;1.40;;;;;;;;;;5064383;28;20229;-76
2022/01/09 05:08:43;;;;;;;1.33;1.33;;;;;;;;;;5055102;28;20242;-77
2022/01/09 05:11:11;;;;;;;1.30;1.30;;;;;;;;;;5055590;28;20213;-76
2022/01/09 05:13:38;;;;;;;1.30;1.30;;;;;;;;;;5056106;28;20644;-78
2022/01/09 05:16:06;;;;;;;1.30;1.30;;;;;;;;;;5055885;28;20268;-76
2022/01/09 05:18:41;;;;;;;1.57;1.47;;;;;;;;;;5057109;28;20864;-76
2022/01/09 05:21:08;;;;;;;1.40;1.40;;;;;;;;;;5056767;28;20205;-76
2022/01/09 05:23:35;;;;;;;1.60;1.60;;;;;;;;;;5056730;28;20257;-76
2022/01/09 05:26:02;;;;;;;1.50;1.50;;;;;;;;;;5057184;28;20215;-77
2022/01/09 05:28:30;;;;;;;1.40;1.40;;;;;;;;;;5055388;28;20241;-76
2022/01/09 05:30:57;;;;;;;1.40;1.40;;;;;;;;;;5055697;28;20236;-76
2022/01/09 05:33:24;;;;;;;1.60;1.50;;;;;;;;;;5056413;28;20229;-76
2022/01/09 05:35:51;;;;;;;1.40;1.40;;;;;;;;;;5056062;28;20279;-77
2022/01/09 05:38:20;;;;;;;1.80;1.50;;;;;;;;;;5055475;28;20260;-77
2022/01/09 05:40:47;;;;;;;1.50;1.50;;;;;;;;;;5055950;28;20776;-77
2022/01/09 05:43:14;;;;;;;1.40;1.40;;;;;;;;;;5058017;28;20243;-78
2022/01/09 05:45:43;;;;;;;1.40;1.40;;;;;;;;;;5058051;28;20222;-78
2022/01/09 05:48:10;;;;;;;2.07;1.60;;;;;;;;;;5057139;28;20234;-77
2022/01/09 05:50:37;;;;;;;1.50;1.50;;;;;;;;;;5058840;28;20584;-77
2022/01/09 05:53:04;;;;;;;1.70;1.60;;;;;;;;;;5056114;28;20249;-76
2022/01/09 05:55:31;;;;;;;1.57;1.47;;;;;;;;;;5055880;28;20240;-76
2022/01/09 05:57:58;;;;;;;1.50;1.50;;;;;;;;;;5056030;28;20232;-76
2022/01/09 06:00:25;;;;;;;1.97;1.87;;;;;;;;;;5069048;28;20236;-77
2022/01/09 06:02:54;;;;;;;1.80;1.70;;;;;;;;;;5069089;28;20745;-76
2022/01/09 06:05:23;;;;;;;2.07;1.97;;;;;;;;;;5055702;28;20230;-77
2022/01/09 06:07:50;;;;;;;1.67;1.67;;;;;;;;;;5055810;28;20259;-77
2022/01/09 06:10:17;;;;;;;2.30;2.00;;;;;;;;;;5055544;28;20216;-77
2022/01/09 06:12:44;;;;;;;2.97;2.00;;;;;;;;;;5054338;28;20236;-77
2022/01/09 06:15:11;;;;;;;2.03;1.80;;;;;;;;;;5055903;28;20290;-77
2022/01/09 06:17:38;;;;;;;1.80;1.80;;;;;;;;;;5059403;28;20206;-77
2022/01/09 06:20:09;;;;;;;2.10;2.00;;;;;;;;;;5058840;28;20212;-77
2022/01/09 06:22:36;;;;;;;3.77;2.07;;;;;;;;;;5055922;28;20208;-77
2022/01/09 06:25:03;;;;;;;2.17;1.97;;;;;;;;;;5057413;28;20294;-77
2022/01/09 06:27:30;;;;;;;2.50;2.03;;;;;;;;;;5056749;28;20217;-77
2022/01/09 06:29:57;;;;;;;3.83;2.20;;;;;;;;;;5056489;28;20219;-76
2022/01/09 06:32:24;;;;;;;3.50;1.93;;;;;;;;;;5055420;28;20213;-77
2022/01/09 06:34:51;;;;;;;2.73;2.10;;;;;;;;;;5054857;28;20226;-77
2022/01/09 06:37:20;;;;;;;2.40;2.20;;;;;;;;;;5055949;28;20209;-77
2022/01/09 06:39:47;;;;;;;3.57;2.03;;;;;;;;;;5053463;28;20222;-77
2022/01/09 06:42:14;;;;;;;2.50;2.30;;;;;;;;;;5055966;28;20615;-76
2022/01/09 06:44:41;;;;;;;2.10;1.73;;;;;;;;;;5055424;28;20243;-77
2022/01/09 06:47:08;;;;;;;2.80;2.10;;;;;;;;;;5056760;28;20217;-77
2022/01/09 06:49:35;;;;;;;3.33;2.00;;;;;;;;;;5055021;28;20294;-77
2022/01/09 06:52:03;;;;;;;2.30;2.10;;;;;;;;;;5055168;28;20580;-76
2022/01/09 06:54:31;;;;;;;2.37;2.17;;;;;;;;;;5055326;28;20237;-78
2022/01/09 06:56:59;;;;;;;3.67;2.20;;;;;;;;;;5055206;28;20202;-76
2022/01/09 06:59:26;;;;;;;2.53;2.33;;;;;;;;;;5059464;28;20231;-77
2022/01/09 07:01:53;;;;;;;1.90;1.80;;;;;;;;;;5075633;28;20671;-76
2022/01/09 07:04:20;;;;;;;2.43;2.23;;;;;;;;;;5057797;28;20239;-79
2022/01/09 07:06:47;;;;;;;4.33;2.33;;;;;;;;;;5062582;28;20238;-78
2022/01/09 07:09:14;;;;;;;4.67;2.30;;;;;;;;;;5061161;28;20233;-79
2022/01/09 07:11:42;;;;;;;3.60;2.70;;;;;;;;;;5061715;28;20198;-78
2022/01/09 07:14:09;;;;;;;3.43;2.10;;;;;;;;;;5060621;28;20241;-77
2022/01/09 07:16:36;;;;;;;2.93;1.80;;;;;;;;;;5060396;28;20223;-80
2022/01/09 07:19:03;;;;;;;4.00;2.17;;;;;;;;;;5058732;28;20775;-79
2022/01/09 07:21:30;;;;;;;5.20;2.47;;;;;;;;;;5056754;28;20254;-78
2022/01/09 07:23:57;;;;;;;4.13;2.57;;;;;;;;;;5058230;28;20239;-78
2022/01/09 07:26:24;;;;;;;4.40;1.90;;;;;;;;;;5059550;28;20221;-78
2022/01/09 07:28:53;;;;;;;2.13;2.03;;;;;;;;;;5062403;28;20245;-78
2022/01/09 07:31:20;;;;;;;2.87;2.10;;;;;;;;;;5064228;28;20616;-78
2022/01/09 07:33:47;;;;;;;3.27;2.20;;;;;;;;;;5066494;28;20731;-77
2022/01/09 07:36:16;;;;;;;4.20;2.00;;;;;;;;;;5060334;28;20222;-78
2022/01/09 07:38:43;;;;;;;2.97;2.10;;;;;;;;;;5056558;28;20235;-79
2022/01/09 07:41:12;;;;;;;3.60;2.20;;;;;;;;;;5057499;28;20687;-79
2022/01/09 07:43:39;;;;;;;3.23;2.20;;;;;;;;;;5054931;28;20226;-78
2022/01/09 07:46:07;;;;;;;5.90;2.73;;;;;;;;;;5046824;28;20226;-79
2022/01/09 07:48:34;;;;;;;6.47;2.50;;;;;;;;;;5057248;28;20247;-79
2022/01/09 07:51:01;;;;;;;4.93;2.40;;;;;;;;;;5058269;28;20213;-78
2022/01/09 07:53:28;;;;;;;4.13;2.70;;;;;;;;;;5055281;28;20238;-78
2022/01/09 07:55:56;;;;;;;4.37;2.80;;;;;;;;;;5048280;28;20232;-79
2022/01/09 07:58:23;;;;;;;3.20;2.20;;;;;;;;;;5037081;28;20233;-78
2022/01/09 08:00:50;;;;;;;2.53;2.27;;;;;;;;;;5056235;28;20198;-78
2022/01/09 08:03:18;;;;;;;5.77;2.67;;;;;;;;;;5055757;28;20235;-79
2022/01/09 08:05:45;;;;;;;2.60;2.37;;;;;;;;;;5056844;28;20293;-78
2022/01/09 08:08:12;;;;;;;7.27;2.50;;;;;;;;;;5057263;28;20233;-81
2022/01/09 08:10:39;;;;;;;4.73;2.90;;;;;;;;;;5059933;28;20282;-79
2022/01/09 08:13:06;;;;;;;4.07;2.40;;;;;;;;;;5060567;28;20232;-80
2022/01/09 08:15:33;;;;;;;6.53;2.67;;;;;;;;;;5060959;28;20236;-81
2022/01/09 08:18:00;;;;;;;9.47;2.90;;;;;;;;;;5060618;28;20248;-80
2022/01/09 08:20:29;;;;;;;5.47;2.67;;;;;;;;;;5060699;28;20206;-81
2022/01/09 08:22:56;;;;;;;3.77;2.30;;;;;;;;;;5061489;28;20232;-80
2022/01/09 08:25:23;;;;;;;6.43;2.70;;;;;;;;;;5062281;28;20275;-79
2022/01/09 08:27:50;;;;;;;9.10;2.80;;;;;;;;;;5061132;28;20233;-80
2022/01/09 08:30:18;;;;;;;10.90;3.20;;;;;;;;;;5060998;28;20271;-80
2022/01/09 08:32:46;;;;;;;5.13;2.43;;;;;;;;;;5060459;28;20236;-80
2022/01/09 08:35:13;;;;;;;8.00;3.27;;;;;;;;;;5061462;28;20287;-79
2022/01/09 08:37:42;;;;;;;6.67;2.87;;;;;;;;;;5060530;28;20279;-81
2022/01/09 08:40:10;;;;;;;6.80;3.00;;;;;;;;;;5060703;28;20248;-80
2022/01/09 08:42:37;;;;;;;11.57;3.10;;;;;;;;;;5060048;28;20664;-79
2022/01/09 08:45:04;;;;;;;7.73;3.07;;;;;;;;;;5061068;28;20235;-80
2022/01/09 08:47:35;;;;;;;8.57;3.43;;;;;;;;;;5060088;28;20204;-79
2022/01/09 08:50:02;;;;;;;9.03;3.00;;;;;;;;;;5059788;28;20206;-78
2022/01/09 08:52:29;;;;;;;4.90;2.97;;;;;;;;;;5054124;28;20219;-77
2022/01/09 08:54:58;;;;;;;5.20;3.07;;;;;;;;;;5054213;28;20255;-79
2022/01/09 08:57:25;;;;;;;5.30;2.93;;;;;;;;;;5051553;28;20255;-79
2022/01/09 08:59:52;;;;;;;7.77;3.27;;;;;;;;;;5060454;28;20214;-78
2022/01/09 09:02:20;;;;;;;11.17;3.53;;;;;;;;;;5055450;28;20213;-78
2022/01/09 09:04:47;;;;;;;7.47;3.60;;;;;;;;;;5058499;28;20236;-79
2022/01/09 09:07:18;;;;;;;7.53;3.70;;;;;;;;;;5059587;28;20205;-78
2022/01/09 09:09:45;;;;;;;6.33;3.07;;;;;;;;;;5058136;28;20228;-79
2022/01/09 09:12:13;;;;;;;6.33;3.37;;;;;;;;;;5066368;28;20224;-79
2022/01/09 09:14:40;;;;;;;7.43;3.10;;;;;;;;;;5041587;28;20264;-78
2022/01/09 09:17:07;;;;;;;7.27;3.00;;;;;;;;;;5060263;28;20721;-79
2022/01/09 09:19:35;;;;;;;4.27;3.07;;;;;;;;;;5062338;28;20232;-77
2022/01/09 09:22:02;;;;;;;12.07;4.33;;;;;;;;;;5063519;28;20210;-79
2022/01/09 09:24:29;;;;;;;5.20;2.77;;;;;;;;;;5061784;28;20237;-78
2022/01/09 09:26:56;;;;;;;4.67;2.73;;;;;;;;;;5063228;28;20205;-79
2022/01/09 09:29:24;;;;;;;6.00;3.17;;;;;;;;;;5066758;28;20295;-78
2022/01/09 09:31:51;;;;;;;5.57;2.90;;;;;;;;;;5067973;28;20210;-79
2022/01/09 09:34:18;;;;;;;4.30;3.13;;;;;;;;;;5067190;28;20240;-79
2022/01/09 09:36:45;;;;;;;8.53;3.70;;;;;;;;;;5068988;28;20251;-78
2022/01/09 09:39:13;;;;;;;6.20;2.90;;;;;;;;;;5067872;28;20264;-79
2022/01/09 09:41:41;;;;;;;4.63;3.00;;;;;;;;;;5066890;28;20241;-79
2022/01/09 09:44:09;;;;;;;3.00;2.23;;;;;;;;;;5065498;28;20237;-79
2022/01/09 09:46:38;;;;;;;9.23;3.17;;;;;;;;;;5067463;28;20226;-78
2022/01/09 09:49:05;;;;;;;5.30;2.30;;;;;;;;;;5068152;28;20236;-78
2022/01/09 09:51:33;;;;;;;3.83;2.50;;;;;;;;;;5064993;28;20320;-78
2022/01/09 09:54:00;;;;;;;2.53;2.10;;;;;;;;;;5063699;28;20252;-79
2022/01/09 09:56:27;;;;;;;10.70;2.50;;;;;;;;;;5064994;28;20232;-78
2022/01/09 09:58:58;;;;;;;5.10;2.53;;;;;;;;;;5063180;28;20243;-79
2022/01/09 10:01:27;;;;;;;6.17;2.60;;;;;;;;;;5065869;28;20216;-79
2022/01/09 10:03:56;;;;;;;6.53;3.07;;;;;;;;;;5062593;28;20311;-79
2022/01/09 10:06:36;;;;;;;4.17;2.60;;;;;;;;;;5063037;28;20197;-78
2022/01/09 10:09:07;;;;;;;4.17;2.40;;;;;;;;;;5062606;28;20241;-78
2022/01/09 10:11:42;;;;;;;8.33;3.10;;;;;;;;;;5062774;28;20244;-78
2022/01/09 10:14:13;;;;;;;3.63;2.20;;;;;;;;;;5062654;28;20230;-78
2022/01/09 10:16:40;;;;;;;3.67;2.37;;;;;;;;;;5061809;28;20240;-79
2022/01/09 10:19:08;;;;;;;7.23;2.27;;;;;;;;;;5056249;28;20237;-79
2022/01/09 10:21:35;;;;;;;4.70;2.40;;;;;;;;;;5059097;28;20210;-79
2022/01/09 10:24:04;;;;;;;6.20;2.50;;;;;;;;;;5062578;28;20314;-79
2022/01/09 10:26:32;;;;;;;4.93;2.10;;;;;;;;;;5064709;28;20225;-79
2022/01/09 10:29:00;;;;;;;4.83;1.90;;;;;;;;;;5062365;28;20245;-79
2022/01/09 10:31:27;;;;;;;5.07;2.67;;;;;;;;;;5061769;28;20208;-79
2022/01/09 10:34:01;;;;;;;3.07;2.60;;;;;;;;;;5062207;28;20249;-79
2022/01/09 10:36:48;;;;;;;3.33;2.63;;;;;;;;;;5062714;28;20217;-79
2022/01/09 10:39:17;;;;;;;4.23;2.50;;;;;;;;;;5063013;28;20233;-79
2022/01/09 10:41:48;;;;;;;4.37;2.40;;;;;;;;;;5063455;28;20243;-79
2022/01/09 10:44:15;;;;;;;4.73;2.40;;;;;;;;;;5064339;28;20236;-79
2022/01/09 10:46:42;;;;;;;5.40;2.87;;;;;;;;;;5062604;28;20212;-79
2022/01/09 10:49:14;;;;;;;4.67;3.07;;;;;;;;;;5074219;28;20238;-80
2022/01/09 10:51:41;;;;;;;4.77;2.33;;;;;;;;;;5063635;28;20206;-79
2022/01/09 10:54:08;;;;;;;5.53;2.40;;;;;;;;;;5063368;28;20248;-79
2022/01/09 10:56:36;;;;;;;4.43;2.50;;;;;;;;;;5063970;28;20226;-79
2022/01/09 10:59:03;;;;;;;8.60;2.80;;;;;;;;;;5061810;28;20245;-80
2022/01/09 11:01:31;;;;;;;2.67;2.20;;;;;;;;;;5061887;28;20261;-79
2022/01/09 11:03:59;;;;;;;4.27;2.20;;;;;;;;;;5061922;28;20244;-79
2022/01/09 11:06:26;;;;;;;8.00;2.70;;;;;;;;;;5056703;28;20206;-79
2022/01/09 11:08:54;;;;;;;4.30;2.30;;;;;;;;;;5062124;28;20241;-79
2022/01/09 11:11:29;;;;;;;6.23;2.70;;;;;;;;;;5041215;28;20210;-81
2022/01/09 11:14:00;;;;;;;3.47;2.13;;;;;;;;;;5058159;28;20229;-80
2022/01/09 11:16:35;;;;;;;7.03;2.33;;;;;;;;;;5054446;28;20226;-80
2022/01/09 11:19:05;;;;;;;8.00;3.70;;;;;;;;;;5058148;28;20264;-79
2022/01/09 11:21:32;;;;;;;3.93;2.37;;;;;;;;;;5063119;28;20201;-79
2022/01/09 11:24:07;;;;;;;7.27;1.90;;;;;;;;;;5062016;28;20272;-79
2022/01/09 11:26:38;;;;;;;7.07;2.60;;;;;;;;;;5063398;28;20209;-79
2022/01/09 11:29:07;;;;;;;4.80;2.40;;;;;;;;;;5063168;28;20233;-81
2022/01/09 11:31:39;;;;;;;4.80;2.47;;;;;;;;;;5063186;28;20217;-81
2022/01/09 11:34:11;;;;;;;6.63;2.30;;;;;;;;;;5062582;28;20237;-81
2022/01/09 11:36:40;;;;;;;3.97;2.00;;;;;;;;;;5063216;28;20285;-81
2022/01/09 11:39:12;;;;;;;5.37;2.43;;;;;;;;;;5063047;28;20241;-81
2022/01/09 11:41:40;;;;;;;5.13;2.30;;;;;;;;;;5062061;28;20217;-81
2022/01/09 11:44:10;;;;;;;4.83;2.17;;;;;;;;;;5061013;28;20241;-81
2022/01/09 11:47:01;;;;;;;4.13;2.30;;;;;;;;;;5062826;28;20202;-81
2022/01/09 11:49:29;;;;;;;8.63;2.20;;;;;;;;;;5027580;28;20238;-80
2022/01/09 11:51:57;;;;;;;4.23;2.40;;;;;;;;;;5043596;28;20241;-81
2022/01/09 11:54:25;;;;;;;6.33;2.70;;;;;;;;;;5043360;28;20238;-81
2022/01/09 11:56:56;;;;;;;7.20;3.00;;;;;;;;;;5062183;28;20287;-81
2022/01/09 11:59:26;;;;;;;6.07;2.33;;;;;;;;;;5061872;28;20250;-81
2022/01/09 12:01:54;;;;;;;2.73;1.80;;;;;;;;;;5062240;28;20627;-81
2022/01/09 12:04:40;;;;;;;5.13;2.30;;;;;;;;;;5060613;28;20260;-81
2022/01/09 12:07:08;;;;;;;6.80;2.30;;;;;;;;;;5061970;28;20212;-80
2022/01/09 12:09:35;;;;;;;5.60;2.13;;;;;;;;;;5062332;28;20265;-80
2022/01/09 12:12:05;;;;;;;6.27;2.63;;;;;;;;;;5061693;28;20260;-81
2022/01/09 12:14:53;;;;;;;4.80;2.53;;;;;;;;;;5043954;28;20235;-80
2022/01/09 12:17:36;;;;;;;4.30;2.60;;;;;;;;;;5040921;28;20238;-80
2022/01/09 12:20:07;;;;;;;5.73;2.43;;;;;;;;;;5043864;28;20214;-79
2022/01/09 12:22:58;;;;;;;7.57;2.83;;;;;;;;;;5058922;28;20206;-80
2022/01/09 12:25:42;;;;;;;4.30;2.20;;;;;;;;;;5041868;28;20230;-80
2022/01/09 12:28:09;;;;;;;5.33;2.23;;;;;;;;;;5056793;28;20226;-80
2022/01/09 12:30:44;;;;;;;3.70;2.63;;;;;;;;;;5060668;28;20206;-79
2022/01/09 12:33:12;;;;;;;9.13;3.30;;;;;;;;;;5055543;28;20228;-79
2022/01/09 12:35:42;;;;;;;7.77;2.63;;;;;;;;;;5056004;28;20222;-80
2022/01/09 12:38:09;;;;;;;5.03;3.10;;;;;;;;;;5057597;28;20229;-80
2022/01/09 12:40:38;;;;;;;7.57;3.30;;;;;;;;;;5059455;28;20198;-80
2022/01/09 12:43:05;;;;;;;6.03;2.97;;;;;;;;;;5060091;28;20226;-80
2022/01/09 12:45:33;;;;;;;4.80;2.73;;;;;;;;;;5059322;28;20276;-80
2022/01/09 12:48:03;;;;;;;6.00;2.90;;;;;;;;;;5070877;28;20225;-79
2022/01/09 12:50:31;;;;;;;4.63;3.00;;;;;;;;;;5081108;28;20697;-80
2022/01/09 12:53:16;;;;;;;5.23;2.40;;;;;;;;;;5080338;28;20233;-80
2022/01/09 12:55:59;;;;;;;5.03;2.47;;;;;;;;;;5082401;28;20584;-79
2022/01/09 12:58:27;;;;;;;6.73;2.97;;;;;;;;;;5083789;28;20406;-80
2022/01/09 13:00:54;;;;;;;8.17;2.63;;;;;;;;;;5084396;28;20206;-80
2022/01/09 13:03:22;;;;;;;6.23;3.20;;;;;;;;;;5084702;28;20722;-80
2022/01/09 13:05:53;;;;;;;8.97;3.20;;;;;;;;;;5084728;28;20213;-80
2022/01/09 13:08:21;;;;;;;6.77;2.63;;;;;;;;;;5084161;28;20229;-80
2022/01/09 13:10:56;;;;;;;5.30;2.70;;;;;;;;;;5084964;28;20212;-80
2022/01/09 13:13:25;;;;;;;5.80;2.83;;;;;;;;;;5079578;28;20229;-80
2022/01/09 13:15:53;;;;;;;4.73;2.40;;;;;;;;;;5065129;28;20206;-80
2022/01/09 13:18:34;;;;;;;5.90;2.43;;;;;;;;;;5061090;28;20240;-79
2022/01/09 13:21:08;;;;;;;5.20;2.30;;;;;;;;;;5044853;28;20210;-79
2022/01/09 13:23:37;;;;;;;4.37;2.10;;;;;;;;;;5044288;28;20237;-80
2022/01/09 13:26:04;;;;;;;2.97;2.10;;;;;;;;;;5044858;28;20433;-80
2022/01/09 13:28:31;;;;;;;4.90;2.43;;;;;;;;;;5045447;28;20250;-80
2022/01/09 13:30:59;;;;;;;5.20;2.57;;;;;;;;;;5061262;28;20266;-80
2022/01/09 13:33:27;;;;;;;3.87;2.63;;;;;;;;;;5062475;28;20256;-80
2022/01/09 13:35:55;;;;;;;3.47;2.50;;;;;;;;;;5044594;28;20214;-80
2022/01/09 13:38:22;;;;;;;5.50;2.73;;;;;;;;;;5056240;28;20250;-80
2022/01/09 13:40:50;;;;;;;5.27;2.43;;;;;;;;;;5063932;28;20209;-80
2022/01/09 13:43:20;;;;;;;7.73;2.87;;;;;;;;;;5069614;28;20297;-79
2022/01/09 13:45:47;;;;;;;5.73;2.67;;;;;;;;;;5063857;28;20218;-80
2022/01/09 13:48:14;;;;;;;6.90;2.70;;;;;;;;;;5063226;28;20242;-80
2022/01/09 13:50:47;;;;;;;3.03;2.57;;;;;;;;;;5063661;28;20667;-80
2022/01/09 13:53:14;;;;;;;7.97;3.00;;;;;;;;;;5064461;28;20260;-79
2022/01/09 13:55:41;;;;;;;7.90;3.00;;;;;;;;;;5064517;28;20225;-80
2022/01/09 13:58:15;;;;;;;4.50;2.70;;;;;;;;;;5064167;28;20230;-80
2022/01/09 14:00:44;;;;;;;8.27;2.83;;;;;;;;;;5064425;28;20257;-79
2022/01/09 14:03:12;;;;;;;6.93;2.40;;;;;;;;;;5064070;28;20240;-79
2022/01/09 14:05:40;;;;;;;5.27;2.70;;;;;;;;;;5063996;28;20244;-80
2022/01/09 14:08:07;;;;;;;4.33;2.70;;;;;;;;;;5063232;28;20234;-80
2022/01/09 14:10:35;;;;;;;5.87;3.30;;;;;;;;;;5064466;28;20202;-79
2022/01/09 14:13:02;;;;;;;6.97;2.83;;;;;;;;;;5063564;28;20236;-80
2022/01/09 14:15:30;;;;;;;7.30;2.40;;;;;;;;;;5064448;28;20237;-80
2022/01/09 14:17:58;;;;;;;2.83;2.20;;;;;;;;;;5064826;28;20233;-80
2022/01/09 14:20:26;;;;;;;4.30;2.63;;;;;;;;;;5064147;28;20210;-80
2022/01/09 14:22:55;;;;;;;5.67;2.83;;;;;;;;;;5062341;28;20290;-79
2022/01/09 14:25:25;;;;;;;6.17;2.80;;;;;;;;;;5061831;28;20230;-80
2022/01/09 14:27:53;;;;;;;4.30;2.27;;;;;;;;;;5061404;28;20253;-80
2022/01/09 14:30:22;;;;;;;4.30;2.33;;;;;;;;;;5062028;28;20605;-81
2022/01/09 14:33:05;;;;;;;6.97;2.50;;;;;;;;;;5057034;28;20237;-80
2022/01/09 14:35:34;;;;;;;7.17;3.20;;;;;;;;;;5048159;28;20230;-79
2022/01/09 14:38:02;;;;;;;4.63;2.40;;;;;;;;;;5066472;28;20229;-79
2022/01/09 14:40:30;;;;;;;6.20;2.53;;;;;;;;;;5057642;28;20205;-79
2022/01/09 14:42:57;;;;;;;4.70;2.80;;;;;;;;;;5048352;28;20232;-80
2022/01/09 14:45:24;;;;;;;5.40;3.00;;;;;;;;;;5045787;28;20224;-80
2022/01/09 14:47:53;;;;;;;7.23;2.83;;;;;;;;;;5062808;28;20236;-80
2022/01/09 14:50:20;;;;;;;5.50;2.40;;;;;;;;;;5056716;28;20198;-79